Terminal Aerodrome Forecast
Issued by NWS

Home | Current Version | Previous Version | Text Only | Print | Product List | Glossary On
Versions: 1 2 3 4 5 6 7 8 9 10 11 12 13 14 15 16 17 18 19 20 21 22 23 24 25 26
000
FTUS45 KCYS 171700
TAFAIA
TAF
KAIA 171721Z 1718/1818 05007KT P6SM FEW100
     FM180200 13005KT P6SM BKN100
     FM181000 14008KT 2SM BR OVC009
     FM181600 16010KT P6SM FEW100=

USA.gov is the U.S. government's official web portal to all federal, state and local government web resources and services.